aviador You're here:

PFNO Decoded Metar

in
Report Time2017-06-25 05:58:00
UTC Time2017-06-25 06:54:36
Flight Rules vfr VFR
Wind180° at 07 kt
W.Decomp.*RWY 24: 3.5 kt HW 6.1 kt LCW
W.Rank180° ranks 15
Current wind is below 180° avg. (7.6)
Visibility9999 m
Phenomena:N/A
Clouds:Overcast 050 Hf
Expected CloudBase > 2,400 ft AGL from Temp-Dew spread
Ceiling5,000 ft
Temp12°C
Dew Point06°C (67% RH)
AAT8.6°C
QNH1018 hPa
Raw Report
PFNO 250558Z AUTO 18007KT 10SM OVC050 12/06 A3007 RMK AO2 SLP185
T01220056 10133 20111 56009=

Extra information for PFNO:More info

Social comments